sensor_id;sensor_type;location;lat;lon;timestamp;temperature;humidity
546;DHT22;259;53.304;9.816;2022-11-20T00:02:25;11.30;65.40
546;DHT22;259;53.304;9.816;2022-11-20T00:04:50;11.30;65.60
546;DHT22;259;53.304;9.816;2022-11-20T00:07:16;11.30;65.50
546;DHT22;259;53.304;9.816;2022-11-20T00:09:41;11.20;65.40
546;DHT22;259;53.304;9.816;2022-11-20T00:12:07;11.20;65.60
546;DHT22;259;53.304;9.816;2022-11-20T00:14:32;11.20;65.40
546;DHT22;259;53.304;9.816;2022-11-20T00:16:58;11.20;65.60
546;DHT22;259;53.304;9.816;2022-11-20T00:19:23;11.20;65.70
546;DHT22;259;53.304;9.816;2022-11-20T00:21:49;11.20;65.50
546;DHT22;259;53.304;9.816;2022-11-20T00:24:16;11.20;65.20
546;DHT22;259;53.304;9.816;2022-11-20T00:26:42;11.20;65.70
546;DHT22;259;53.304;9.816;2022-11-20T00:29:09;11.10;65.80
546;DHT22;259;53.304;9.816;2022-11-20T00:31:35;11.10;65.50
546;DHT22;259;53.304;9.816;2022-11-20T00:34:01;11.10;65.70
546;DHT22;259;53.304;9.816;2022-11-20T00:36:28;11.10;65.40
546;DHT22;259;53.304;9.816;2022-11-20T00:38:55;11.10;65.80
546;DHT22;259;53.304;9.816;2022-11-20T00:41:21;11.10;65.90
546;DHT22;259;53.304;9.816;2022-11-20T00:43:47;11.10;65.80
546;DHT22;259;53.304;9.816;2022-11-20T00:46:18;11.10;65.90
546;DHT22;259;53.304;9.816;2022-11-20T00:48:44;11.10;65.70
546;DHT22;259;53.304;9.816;2022-11-20T00:51:12;11.10;65.80
546;DHT22;259;53.304;9.816;2022-11-20T00:53:38;11.00;65.70
546;DHT22;259;53.304;9.816;2022-11-20T00:56:06;11.00;65.70
546;DHT22;259;53.304;9.816;2022-11-20T00:58:37;11.00;65.60
546;DHT22;259;53.304;9.816;2022-11-20T01:01:08;11.00;65.90
546;DHT22;259;53.304;9.816;2022-11-20T01:03:36;11.00;65.70
546;DHT22;259;53.304;9.816;2022-11-20T01:06:04;11.00;65.70
546;DHT22;259;53.304;9.816;2022-11-20T01:08:34;11.00;65.90
546;DHT22;259;53.304;9.816;2022-11-20T01:11:09;11.00;66.00
546;DHT22;259;53.304;9.816;2022-11-20T01:13:35;10.90;65.70
546;DHT22;259;53.304;9.816;2022-11-20T01:16:13;10.90;65.80
546;DHT22;259;53.304;9.816;2022-11-20T01:18:40;10.90;65.80
546;DHT22;259;53.304;9.816;2022-11-20T01:21:08;10.90;65.70
546;DHT22;259;53.304;9.816;2022-11-20T01:23:35;10.90;65.60
546;DHT22;259;53.304;9.816;2022-11-20T01:26:07;10.90;65.60
546;DHT22;259;53.304;9.816;2022-11-20T01:28:33;10.90;65.60
546;DHT22;259;53.304;9.816;2022-11-20T01:30:59;10.90;65.90
546;DHT22;259;53.304;9.816;2022-11-20T01:33:25;10.80;65.50
546;DHT22;259;53.304;9.816;2022-11-20T01:35:51;10.90;65.80
546;DHT22;259;53.304;9.816;2022-11-20T01:38:17;10.80;65.90
546;DHT22;259;53.304;9.816;2022-11-20T01:40:43;10.80;65.80
546;DHT22;259;53.304;9.816;2022-11-20T01:43:17;10.80;65.70
546;DHT22;259;53.304;9.816;2022-11-20T01:48:54;10.80;66.00
546;DHT22;259;53.304;9.816;2022-11-20T01:54:15;10.80;66.00
546;DHT22;259;53.304;9.816;2022-11-20T01:56:44;10.80;66.00
546;DHT22;259;53.304;9.816;2022-11-20T01:59:13;10.70;66.10
546;DHT22;259;53.304;9.816;2022-11-20T02:01:40;10.70;65.80
546;DHT22;259;53.304;9.816;2022-11-20T02:04:07;10.70;65.90
546;DHT22;259;53.304;9.816;2022-11-20T02:06:38;10.70;65.90
546;DHT22;259;53.304;9.816;2022-11-20T02:09:05;10.70;66.00
546;DHT22;259;53.304;9.816;2022-11-20T02:11:31;10.70;66.00
546;DHT22;259;53.304;9.816;2022-11-20T02:13:57;10.70;66.00
546;DHT22;259;53.304;9.816;2022-11-20T02:16:39;10.70;66.10
546;DHT22;259;53.304;9.816;2022-11-20T02:19:11;10.70;66.10
546;DHT22;259;53.304;9.816;2022-11-20T02:21:56;10.60;65.80
546;DHT22;259;53.304;9.816;2022-11-20T02:24:24;10.60;66.00
546;DHT22;259;53.304;9.816;2022-11-20T02:29:40;10.60;66.00
546;DHT22;259;53.304;9.816;2022-11-20T02:32:18;10.60;66.00
546;DHT22;259;53.304;9.816;2022-11-20T02:34:43;10.60;66.00
546;DHT22;259;53.304;9.816;2022-11-20T02:37:09;10.60;66.00
546;DHT22;259;53.304;9.816;2022-11-20T02:39:34;10.60;65.90
546;DHT22;259;53.304;9.816;2022-11-20T02:42:00;10.60;66.00
546;DHT22;259;53.304;9.816;2022-11-20T02:44:26;10.60;66.00
546;DHT22;259;53.304;9.816;2022-11-20T02:46:51;10.60;66.10
546;DHT22;259;53.304;9.816;2022-11-20T02:49:17;10.50;65.90
546;DHT22;259;53.304;9.816;2022-11-20T02:51:43;10.50;65.90
546;DHT22;259;53.304;9.816;2022-11-20T02:54:08;10.50;65.90
546;DHT22;259;53.304;9.816;2022-11-20T02:56:34;10.50;66.00
546;DHT22;259;53.304;9.816;2022-11-20T02:58:59;10.50;65.90
546;DHT22;259;53.304;9.816;2022-11-20T03:01:25;10.50;66.00
546;DHT22;259;53.304;9.816;2022-11-20T03:03:50;10.50;65.80
546;DHT22;259;53.304;9.816;2022-11-20T03:06:17;10.50;65.90
546;DHT22;259;53.304;9.816;2022-11-20T03:08:43;10.50;66.00
546;DHT22;259;53.304;9.816;2022-11-20T03:11:09;10.50;66.00
546;DHT22;259;53.304;9.816;2022-11-20T03:13:35;10.50;65.90
546;DHT22;259;53.304;9.816;2022-11-20T03:16:27;10.50;65.90
546;DHT22;259;53.304;9.816;2022-11-20T03:18:52;10.40;65.80
546;DHT22;259;53.304;9.816;2022-11-20T03:21:19;10.40;65.90
546;DHT22;259;53.304;9.816;2022-11-20T03:23:44;10.40;66.00
546;DHT22;259;53.304;9.816;2022-11-20T03:26:13;10.40;65.90
546;DHT22;259;53.304;9.816;2022-11-20T03:28:39;10.40;66.10
546;DHT22;259;53.304;9.816;2022-11-20T03:31:09;10.40;66.10
546;DHT22;259;53.304;9.816;2022-11-20T03:33:35;10.40;66.10
546;DHT22;259;53.304;9.816;2022-11-20T03:36:02;10.40;66.00
546;DHT22;259;53.304;9.816;2022-11-20T03:38:32;10.40;65.90
546;DHT22;259;53.304;9.816;2022-11-20T03:40:59;10.40;66.20
546;DHT22;259;53.304;9.816;2022-11-20T03:43:26;10.30;66.00
546;DHT22;259;53.304;9.816;2022-11-20T03:45:52;10.30;66.00
546;DHT22;259;53.304;9.816;2022-11-20T03:48:17;10.30;66.00
546;DHT22;259;53.304;9.816;2022-11-20T03:50:43;10.30;65.90
546;DHT22;259;53.304;9.816;2022-11-20T03:53:08;10.30;66.00
546;DHT22;259;53.304;9.816;2022-11-20T03:55:34;10.30;65.90
546;DHT22;259;53.304;9.816;2022-11-20T03:57:59;10.30;65.90
546;DHT22;259;53.304;9.816;2022-11-20T04:00:25;10.30;65.60
546;DHT22;259;53.304;9.816;2022-11-20T04:02:50;10.30;65.80
546;DHT22;259;53.304;9.816;2022-11-20T04:05:16;10.30;66.20
546;DHT22;259;53.304;9.816;2022-11-20T04:07:41;10.30;66.10
546;DHT22;259;53.304;9.816;2022-11-20T04:10:07;10.30;66.20
546;DHT22;259;53.304;9.816;2022-11-20T04:12:33;10.30;66.00
546;DHT22;259;53.304;9.816;2022-11-20T04:14:59;10.30;66.20
546;DHT22;259;53.304;9.816;2022-11-20T04:17:24;10.30;66.20
546;DHT22;259;53.304;9.816;2022-11-20T04:19:50;10.30;66.00
546;DHT22;259;53.304;9.816;2022-11-20T04:22:15;10.30;66.20
546;DHT22;259;53.304;9.816;2022-11-20T04:24:41;10.20;66.40
546;DHT22;259;53.304;9.816;2022-11-20T04:27:06;10.20;66.40
546;DHT22;259;53.304;9.816;2022-11-20T04:29:32;10.20;66.30
546;DHT22;259;53.304;9.816;2022-11-20T04:31:57;10.20;66.30
546;DHT22;259;53.304;9.816;2022-11-20T04:34:23;10.20;66.20
546;DHT22;259;53.304;9.816;2022-11-20T04:36:49;10.20;66.30
546;DHT22;259;53.304;9.816;2022-11-20T04:39:14;10.20;66.40
546;DHT22;259;53.304;9.816;2022-11-20T04:41:40;10.20;66.10
546;DHT22;259;53.304;9.816;2022-11-20T04:44:06;10.20;66.40
546;DHT22;259;53.304;9.816;2022-11-20T04:46:43;10.10;66.30
546;DHT22;259;53.304;9.816;2022-11-20T04:49:13;10.10;66.00
546;DHT22;259;53.304;9.816;2022-11-20T04:51:39;10.10;66.20
546;DHT22;259;53.304;9.816;2022-11-20T04:54:05;10.10;66.20
546;DHT22;259;53.304;9.816;2022-11-20T04:56:30;10.10;66.30
546;DHT22;259;53.304;9.816;2022-11-20T04:59:00;10.10;66.50
546;DHT22;259;53.304;9.816;2022-11-20T05:01:25;10.10;66.20
546;DHT22;259;53.304;9.816;2022-11-20T05:03:51;10.10;66.30
546;DHT22;259;53.304;9.816;2022-11-20T05:06:19;10.10;66.40
546;DHT22;259;53.304;9.816;2022-11-20T05:08:45;10.10;66.20
546;DHT22;259;53.304;9.816;2022-11-20T05:11:12;10.10;66.30
546;DHT22;259;53.304;9.816;2022-11-20T05:13:38;10.00;66.20
546;DHT22;259;53.304;9.816;2022-11-20T05:16:09;10.00;66.40
546;DHT22;259;53.304;9.816;2022-11-20T05:18:36;10.00;66.20
546;DHT22;259;53.304;9.816;2022-11-20T05:21:02;10.00;66.40
546;DHT22;259;53.304;9.816;2022-11-20T05:23:31;10.00;66.40
546;DHT22;259;53.304;9.816;2022-11-20T05:25:57;10.00;66.20
546;DHT22;259;53.304;9.816;2022-11-20T05:28:24;10.00;66.20
546;DHT22;259;53.304;9.816;2022-11-20T05:30:50;10.00;66.50
546;DHT22;259;53.304;9.816;2022-11-20T05:33:16;10.00;66.40
546;DHT22;259;53.304;9.816;2022-11-20T05:35:42;10.00;66.40
546;DHT22;259;53.304;9.816;2022-11-20T05:38:08;10.00;66.40
546;DHT22;259;53.304;9.816;2022-11-20T05:40:34;10.00;66.50
546;DHT22;259;53.304;9.816;2022-11-20T05:43:00;9.90;67.60
546;DHT22;259;53.304;9.816;2022-11-20T05:45:25;9.90;67.60
546;DHT22;259;53.304;9.816;2022-11-20T05:47:51;9.90;67.60
546;DHT22;259;53.304;9.816;2022-11-20T05:50:16;9.90;67.60
546;DHT22;259;53.304;9.816;2022-11-20T05:52:42;9.90;67.40
546;DHT22;259;53.304;9.816;2022-11-20T05:55:08;9.90;67.60
546;DHT22;259;53.304;9.816;2022-11-20T05:57:33;9.90;67.70
546;DHT22;259;53.304;9.816;2022-11-20T05:59:59;9.90;67.70
546;DHT22;259;53.304;9.816;2022-11-20T06:02:25;9.90;67.80
546;DHT22;259;53.304;9.816;2022-11-20T06:04:50;9.90;67.80
546;DHT22;259;53.304;9.816;2022-11-20T06:07:16;9.90;67.80
546;DHT22;259;53.304;9.816;2022-11-20T06:09:41;9.90;67.80
546;DHT22;259;53.304;9.816;2022-11-20T06:12:07;9.90;67.70
546;DHT22;259;53.304;9.816;2022-11-20T06:14:33;9.80;67.70
546;DHT22;259;53.304;9.816;2022-11-20T06:16:58;9.80;67.60
546;DHT22;259;53.304;9.816;2022-11-20T06:19:24;9.80;67.70
546;DHT22;259;53.304;9.816;2022-11-20T06:21:49;9.80;67.80
546;DHT22;259;53.304;9.816;2022-11-20T06:24:16;9.80;67.60
546;DHT22;259;53.304;9.816;2022-11-20T06:26:42;9.80;67.60
546;DHT22;259;53.304;9.816;2022-11-20T06:29:07;9.80;67.80
546;DHT22;259;53.304;9.816;2022-11-20T06:31:33;9.80;67.90
546;DHT22;259;53.304;9.816;2022-11-20T06:34:00;9.80;67.90
546;DHT22;259;53.304;9.816;2022-11-20T06:36:26;9.80;67.80
546;DHT22;259;53.304;9.816;2022-11-20T06:38:52;9.80;67.70
546;DHT22;259;53.304;9.816;2022-11-20T06:41:21;9.80;67.80
546;DHT22;259;53.304;9.816;2022-11-20T06:43:47;9.80;67.80
546;DHT22;259;53.304;9.816;2022-11-20T06:46:15;9.80;67.80
546;DHT22;259;53.304;9.816;2022-11-20T06:48:43;9.80;67.80
546;DHT22;259;53.304;9.816;2022-11-20T06:51:08;9.70;67.70
546;DHT22;259;53.304;9.816;2022-11-20T06:53:35;9.70;67.80
546;DHT22;259;53.304;9.816;2022-11-20T06:56:01;9.70;67.70
546;DHT22;259;53.304;9.816;2022-11-20T06:58:28;9.70;67.80
546;DHT22;259;53.304;9.816;2022-11-20T07:00:58;9.70;68.50
546;DHT22;259;53.304;9.816;2022-11-20T07:03:24;9.70;67.90
546;DHT22;259;53.304;9.816;2022-11-20T07:05:49;9.70;67.80
546;DHT22;259;53.304;9.816;2022-11-20T07:08:15;9.70;67.70
546;DHT22;259;53.304;9.816;2022-11-20T07:10:40;9.70;68.00
546;DHT22;259;53.304;9.816;2022-11-20T07:13:06;9.70;67.80
546;DHT22;259;53.304;9.816;2022-11-20T07:15:32;9.70;67.80
546;DHT22;259;53.304;9.816;2022-11-20T07:18:01;9.70;67.70
546;DHT22;259;53.304;9.816;2022-11-20T07:20:27;9.70;67.60
546;DHT22;259;53.304;9.816;2022-11-20T07:22:54;9.70;67.80
546;DHT22;259;53.304;9.816;2022-11-20T07:25:20;9.60;67.80
546;DHT22;259;53.304;9.816;2022-11-20T07:27:46;9.60;67.70
546;DHT22;259;53.304;9.816;2022-11-20T07:30:12;9.60;67.80
546;DHT22;259;53.304;9.816;2022-11-20T07:32:37;9.60;67.80
546;DHT22;259;53.304;9.816;2022-11-20T07:35:03;9.60;67.80
546;DHT22;259;53.304;9.816;2022-11-20T07:37:29;9.60;67.90
546;DHT22;259;53.304;9.816;2022-11-20T07:39:54;9.60;68.50
546;DHT22;259;53.304;9.816;2022-11-20T07:42:20;9.60;67.80
546;DHT22;259;53.304;9.816;2022-11-20T07:44:45;9.60;67.80
546;DHT22;259;53.304;9.816;2022-11-20T07:47:11;9.60;67.80
546;DHT22;259;53.304;9.816;2022-11-20T07:49:36;9.60;67.80
546;DHT22;259;53.304;9.816;2022-11-20T07:52:02;9.60;67.80
546;DHT22;259;53.304;9.816;2022-11-20T07:54:27;9.60;67.90
546;DHT22;259;53.304;9.816;2022-11-20T07:56:54;9.60;68.10
546;DHT22;259;53.304;9.816;2022-11-20T07:59:19;9.60;67.80
546;DHT22;259;53.304;9.816;2022-11-20T08:01:45;9.50;67.90
546;DHT22;259;53.304;9.816;2022-11-20T08:04:10;9.50;67.90
546;DHT22;259;53.304;9.816;2022-11-20T08:06:36;9.50;67.80
546;DHT22;259;53.304;9.816;2022-11-20T08:09:02;9.50;67.90
546;DHT22;259;53.304;9.816;2022-11-20T08:11:28;9.50;67.80
546;DHT22;259;53.304;9.816;2022-11-20T08:14:12;9.50;67.90
546;DHT22;259;53.304;9.816;2022-11-20T08:16:48;9.50;68.00
546;DHT22;259;53.304;9.816;2022-11-20T08:19:16;9.50;68.10
546;DHT22;259;53.304;9.816;2022-11-20T08:21:42;9.50;67.90
546;DHT22;259;53.304;9.816;2022-11-20T08:24:08;9.50;68.00
546;DHT22;259;53.304;9.816;2022-11-20T08:26:35;9.50;68.00
546;DHT22;259;53.304;9.816;2022-11-20T08:29:02;9.50;67.90
546;DHT22;259;53.304;9.816;2022-11-20T08:31:28;9.50;67.90
546;DHT22;259;53.304;9.816;2022-11-20T08:33:54;9.50;68.10
546;DHT22;259;53.304;9.816;2022-11-20T08:36:20;9.50;68.00
546;DHT22;259;53.304;9.816;2022-11-20T08:38:53;9.50;68.00
546;DHT22;259;53.304;9.816;2022-11-20T08:41:19;9.50;68.20
546;DHT22;259;53.304;9.816;2022-11-20T08:44:00;9.50;68.10
546;DHT22;259;53.304;9.816;2022-11-20T08:46:28;9.50;68.10
546;DHT22;259;53.304;9.816;2022-11-20T08:48:55;9.40;67.90
546;DHT22;259;53.304;9.816;2022-11-20T08:51:21;9.40;68.00
546;DHT22;259;53.304;9.816;2022-11-20T08:53:47;9.40;68.10
546;DHT22;259;53.304;9.816;2022-11-20T08:56:14;9.40;68.10
546;DHT22;259;53.304;9.816;2022-11-20T08:58:39;9.40;68.20
546;DHT22;259;53.304;9.816;2022-11-20T09:01:05;9.40;68.10
546;DHT22;259;53.304;9.816;2022-11-20T09:03:31;9.40;68.20
546;DHT22;259;53.304;9.816;2022-11-20T09:06:01;9.40;68.20
546;DHT22;259;53.304;9.816;2022-11-20T09:08:28;9.40;68.20
546;DHT22;259;53.304;9.816;2022-11-20T09:10:55;9.40;68.40
546;DHT22;259;53.304;9.816;2022-11-20T09:13:21;9.40;69.50
546;DHT22;259;53.304;9.816;2022-11-20T09:15:51;9.50;71.70
546;DHT22;259;53.304;9.816;2022-11-20T09:18:17;9.50;71.60
546;DHT22;259;53.304;9.816;2022-11-20T09:20:43;9.60;72.40
546;DHT22;259;53.304;9.816;2022-11-20T09:23:08;9.70;72.30
546;DHT22;259;53.304;9.816;2022-11-20T09:25:34;9.80;71.80
546;DHT22;259;53.304;9.816;2022-11-20T09:27:59;10.10;71.10
546;DHT22;259;53.304;9.816;2022-11-20T09:30:26;10.30;71.30
546;DHT22;259;53.304;9.816;2022-11-20T09:32:52;10.50;70.20
546;DHT22;259;53.304;9.816;2022-11-20T09:35:18;10.70;69.90
546;DHT22;259;53.304;9.816;2022-11-20T09:37:44;11.00;68.80
546;DHT22;259;53.304;9.816;2022-11-20T09:40:23;11.50;66.50
546;DHT22;259;53.304;9.816;2022-11-20T09:50:54;14.00;61.30
546;DHT22;259;53.304;9.816;2022-11-20T09:56:01;15.50;58.90
546;DHT22;259;53.304;9.816;2022-11-20T09:58:33;16.30;58.20
546;DHT22;259;53.304;9.816;2022-11-20T10:01:14;17.00;57.40
546;DHT22;259;53.304;9.816;2022-11-20T10:03:56;17.50;56.50
546;DHT22;259;53.304;9.816;2022-11-20T10:09:35;18.50;55.20
546;DHT22;259;53.304;9.816;2022-11-20T10:20:46;19.60;54.00
546;DHT22;259;53.304;9.816;2022-11-20T10:31:03;20.10;53.70
546;DHT22;259;53.304;9.816;2022-11-20T10:33:34;20.10;53.50
546;DHT22;259;53.304;9.816;2022-11-20T10:36:21;20.10;53.40
546;DHT22;259;53.304;9.816;2022-11-20T10:38:54;20.10;53.40
546;DHT22;259;53.304;9.816;2022-11-20T10:41:26;20.00;53.50
546;DHT22;259;53.304;9.816;2022-11-20T10:43:59;19.90;53.60
546;DHT22;259;53.304;9.816;2022-11-20T10:46:34;19.80;53.70
546;DHT22;259;53.304;9.816;2022-11-20T10:49:05;19.70;53.90
546;DHT22;259;53.304;9.816;2022-11-20T10:54:17;19.50;54.30
546;DHT22;259;53.304;9.816;2022-11-20T10:56:51;19.50;54.50
546;DHT22;259;53.304;9.816;2022-11-20T10:59:45;19.30;54.50
546;DHT22;259;53.304;9.816;2022-11-20T11:02:18;19.20;54.80
546;DHT22;259;53.304;9.816;2022-11-20T11:04:46;19.10;55.10
546;DHT22;259;53.304;9.816;2022-11-20T11:07:27;19.00;55.30
546;DHT22;259;53.304;9.816;2022-11-20T11:09:55;18.90;55.40
546;DHT22;259;53.304;9.816;2022-11-20T11:12:25;18.90;55.50
546;DHT22;259;53.304;9.816;2022-11-20T11:14:53;18.90;55.70
546;DHT22;259;53.304;9.816;2022-11-20T11:17:30;18.90;55.80
546;DHT22;259;53.304;9.816;2022-11-20T11:22:31;19.00;55.70
546;DHT22;259;53.304;9.816;2022-11-20T11:24:57;19.10;55.80
546;DHT22;259;53.304;9.816;2022-11-20T11:27:23;19.30;55.70
546;DHT22;259;53.304;9.816;2022-11-20T11:29:48;19.60;55.20
546;DHT22;259;53.304;9.816;2022-11-20T11:32:15;20.00;54.70
546;DHT22;259;53.304;9.816;2022-11-20T11:34:41;20.40;54.20
546;DHT22;259;53.304;9.816;2022-11-20T11:37:20;20.80;53.70
546;DHT22;259;53.304;9.816;2022-11-20T11:39:50;21.10;53.30
546;DHT22;259;53.304;9.816;2022-11-20T11:42:19;21.40;52.90
546;DHT22;259;53.304;9.816;2022-11-20T11:44:47;21.60;52.50
546;DHT22;259;53.304;9.816;2022-11-20T11:47:36;21.80;52.20
546;DHT22;259;53.304;9.816;2022-11-20T11:50:22;22.00;52.00
546;DHT22;259;53.304;9.816;2022-11-20T11:53:13;22.20;51.80
546;DHT22;259;53.304;9.816;2022-11-20T11:55:43;22.30;51.60
546;DHT22;259;53.304;9.816;2022-11-20T11:59:08;22.40;51.50
546;DHT22;259;53.304;9.816;2022-11-20T12:01:29;22.50;51.50
546;DHT22;259;53.304;9.816;2022-11-20T12:04:13;22.60;51.60
546;DHT22;259;53.304;9.816;2022-11-20T12:06:44;22.70;51.60
546;DHT22;259;53.304;9.816;2022-11-20T12:09:11;22.80;51.70
546;DHT22;259;53.304;9.816;2022-11-20T12:14:20;22.80;51.50
546;DHT22;259;53.304;9.816;2022-11-20T12:16:50;22.80;51.60
546;DHT22;259;53.304;9.816;2022-11-20T12:19:16;22.70;51.90
546;DHT22;259;53.304;9.816;2022-11-20T12:32:38;22.50;52.50
546;DHT22;259;53.304;9.816;2022-11-20T12:55:03;21.90;53.40
546;DHT22;259;53.304;9.816;2022-11-20T13:05:24;21.40;54.00
546;DHT22;259;53.304;9.816;2022-11-20T13:07:53;21.30;54.20
546;DHT22;259;53.304;9.816;2022-11-20T13:13:01;21.30;54.40
546;DHT22;259;53.304;9.816;2022-11-20T13:15:45;21.50;54.30
546;DHT22;259;53.304;9.816;2022-11-20T13:18:14;21.70;54.10
546;DHT22;259;53.304;9.816;2022-11-20T13:20:44;22.00;53.80
546;DHT22;259;53.304;9.816;2022-11-20T13:23:11;22.30;53.40
546;DHT22;259;53.304;9.816;2022-11-20T13:25:38;22.60;53.20
546;DHT22;259;53.304;9.816;2022-11-20T13:30:48;23.20;52.50
546;DHT22;259;53.304;9.816;2022-11-20T13:36:20;23.70;51.90
546;DHT22;259;53.304;9.816;2022-11-20T13:38:49;23.90;51.70
546;DHT22;259;53.304;9.816;2022-11-20T13:41:26;24.10;51.50
546;DHT22;259;53.304;9.816;2022-11-20T13:44:15;24.30;51.30
546;DHT22;259;53.304;9.816;2022-11-20T13:46:48;24.60;51.20
546;DHT22;259;53.304;9.816;2022-11-20T13:49:31;24.80;50.90
546;DHT22;259;53.304;9.816;2022-11-20T13:55:36;25.20;50.40
546;DHT22;259;53.304;9.816;2022-11-20T14:01:05;25.50;50.10
546;DHT22;259;53.304;9.816;2022-11-20T14:03:34;25.60;50.10
546;DHT22;259;53.304;9.816;2022-11-20T14:06:26;25.70;50.00
546;DHT22;259;53.304;9.816;2022-11-20T14:08:53;25.70;49.90
546;DHT22;259;53.304;9.816;2022-11-20T14:11:23;25.70;49.90
546;DHT22;259;53.304;9.816;2022-11-20T14:13:56;25.80;50.00
546;DHT22;259;53.304;9.816;2022-11-20T14:16:24;25.70;50.10
546;DHT22;259;53.304;9.816;2022-11-20T14:18:50;25.60;50.30
546;DHT22;259;53.304;9.816;2022-11-20T14:21:26;25.60;50.40
546;DHT22;259;53.304;9.816;2022-11-20T14:24:04;25.60;50.40
546;DHT22;259;53.304;9.816;2022-11-20T14:26:30;25.60;50.40
546;DHT22;259;53.304;9.816;2022-11-20T14:28:56;25.50;50.50
546;DHT22;259;53.304;9.816;2022-11-20T14:31:26;25.50;50.80
546;DHT22;259;53.304;9.816;2022-11-20T14:33:53;25.30;50.80
546;DHT22;259;53.304;9.816;2022-11-20T14:36:24;25.30;50.80
546;DHT22;259;53.304;9.816;2022-11-20T14:38:51;25.20;50.90
546;DHT22;259;53.304;9.816;2022-11-20T14:41:22;25.10;50.90
546;DHT22;259;53.304;9.816;2022-11-20T14:43:53;25.00;51.00
546;DHT22;259;53.304;9.816;2022-11-20T14:46:20;24.90;51.00
546;DHT22;259;53.304;9.816;2022-11-20T14:48:49;24.80;51.10
546;DHT22;259;53.304;9.816;2022-11-20T14:51:31;24.70;51.20
546;DHT22;259;53.304;9.816;2022-11-20T14:54:08;24.60;51.30
546;DHT22;259;53.304;9.816;2022-11-20T14:56:34;24.50;51.40
546;DHT22;259;53.304;9.816;2022-11-20T14:58:59;24.40;51.50
546;DHT22;259;53.304;9.816;2022-11-20T15:01:27;24.30;51.60
546;DHT22;259;53.304;9.816;2022-11-20T15:04:20;24.20;51.70
546;DHT22;259;53.304;9.816;2022-11-20T15:06:54;24.00;51.80
546;DHT22;259;53.304;9.816;2022-11-20T15:09:19;23.90;51.90
546;DHT22;259;53.304;9.816;2022-11-20T15:12:00;23.80;52.00
546;DHT22;259;53.304;9.816;2022-11-20T15:14:27;23.70;52.10
546;DHT22;259;53.304;9.816;2022-11-20T15:16:54;23.60;52.30
546;DHT22;259;53.304;9.816;2022-11-20T15:19:24;23.50;52.30
546;DHT22;259;53.304;9.816;2022-11-20T15:21:50;23.40;52.50
546;DHT22;259;53.304;9.816;2022-11-20T15:24:17;23.20;52.50
546;DHT22;259;53.304;9.816;2022-11-20T15:26:42;23.20;52.70
546;DHT22;259;53.304;9.816;2022-11-20T15:29:10;23.00;52.70
546;DHT22;259;53.304;9.816;2022-11-20T15:31:37;22.90;52.80
546;DHT22;259;53.304;9.816;2022-11-20T15:34:11;22.80;53.00
546;DHT22;259;53.304;9.816;2022-11-20T15:36:38;22.70;53.00
546;DHT22;259;53.304;9.816;2022-11-20T15:39:03;22.60;53.20
546;DHT22;259;53.304;9.816;2022-11-20T15:41:29;22.50;53.20
546;DHT22;259;53.304;9.816;2022-11-20T15:43:55;22.40;53.40
546;DHT22;259;53.304;9.816;2022-11-20T15:46:32;22.30;53.40
546;DHT22;259;53.304;9.816;2022-11-20T15:49:03;22.20;53.60
546;DHT22;259;53.304;9.816;2022-11-20T15:51:31;22.10;53.70
546;DHT22;259;53.304;9.816;2022-11-20T15:53:59;22.00;53.80
546;DHT22;259;53.304;9.816;2022-11-20T15:56:25;21.90;53.90
546;DHT22;259;53.304;9.816;2022-11-20T15:58:51;21.80;54.00
546;DHT22;259;53.304;9.816;2022-11-20T16:01:19;21.70;54.20
546;DHT22;259;53.304;9.816;2022-11-20T16:03:45;21.50;54.20
546;DHT22;259;53.304;9.816;2022-11-20T16:06:11;21.40;54.30
546;DHT22;259;53.304;9.816;2022-11-20T16:08:37;21.30;54.40
546;DHT22;259;53.304;9.816;2022-11-20T16:11:03;21.20;54.50
546;DHT22;259;53.304;9.816;2022-11-20T16:13:31;21.10;54.60
546;DHT22;259;53.304;9.816;2022-11-20T16:16:23;21.00;54.70
546;DHT22;259;53.304;9.816;2022-11-20T16:18:49;20.90;54.80
546;DHT22;259;53.304;9.816;2022-11-20T16:21:15;20.80;54.90
546;DHT22;259;53.304;9.816;2022-11-20T16:23:41;20.70;55.00
546;DHT22;259;53.304;9.816;2022-11-20T16:26:15;20.60;55.10
546;DHT22;259;53.304;9.816;2022-11-20T16:28:42;20.50;55.20
546;DHT22;259;53.304;9.816;2022-11-20T16:31:14;20.40;55.30
546;DHT22;259;53.304;9.816;2022-11-20T16:33:40;20.30;55.40
546;DHT22;259;53.304;9.816;2022-11-20T16:36:08;20.30;55.60
546;DHT22;259;53.304;9.816;2022-11-20T16:38:34;20.20;55.60
546;DHT22;259;53.304;9.816;2022-11-20T16:41:03;20.10;55.70
546;DHT22;259;53.304;9.816;2022-11-20T16:43:28;20.00;55.80
546;DHT22;259;53.304;9.816;2022-11-20T16:45:54;19.90;55.80
546;DHT22;259;53.304;9.816;2022-11-20T16:48:20;19.80;55.90
546;DHT22;259;53.304;9.816;2022-11-20T16:50:50;19.70;56.00
546;DHT22;259;53.304;9.816;2022-11-20T16:53:18;19.70;56.70
546;DHT22;259;53.304;9.816;2022-11-20T16:55:44;19.60;56.20
546;DHT22;259;53.304;9.816;2022-11-20T16:58:09;19.50;56.30
546;DHT22;259;53.304;9.816;2022-11-20T17:00:39;19.40;56.30
546;DHT22;259;53.304;9.816;2022-11-20T17:03:06;19.30;56.40
546;DHT22;259;53.304;9.816;2022-11-20T17:05:32;19.20;56.40
546;DHT22;259;53.304;9.816;2022-11-20T17:07:58;19.20;56.50
546;DHT22;259;53.304;9.816;2022-11-20T17:10:24;19.10;56.60
546;DHT22;259;53.304;9.816;2022-11-20T17:12:50;19.00;56.70
546;DHT22;259;53.304;9.816;2022-11-20T17:15:15;18.90;56.70
546;DHT22;259;53.304;9.816;2022-11-20T17:17:41;18.90;56.90
546;DHT22;259;53.304;9.816;2022-11-20T17:20:07;18.80;56.90
546;DHT22;259;53.304;9.816;2022-11-20T17:22:33;18.70;56.90
546;DHT22;259;53.304;9.816;2022-11-20T17:24:58;18.70;57.00
546;DHT22;259;53.304;9.816;2022-11-20T17:27:24;18.60;57.10
546;DHT22;259;53.304;9.816;2022-11-20T17:29:51;18.50;57.10
546;DHT22;259;53.304;9.816;2022-11-20T17:32:19;18.50;57.20
546;DHT22;259;53.304;9.816;2022-11-20T17:34:44;18.40;57.30
546;DHT22;259;53.304;9.816;2022-11-20T17:37:10;18.40;57.40
546;DHT22;259;53.304;9.816;2022-11-20T17:39:35;18.30;57.40
546;DHT22;259;53.304;9.816;2022-11-20T17:42:01;18.20;57.40
546;DHT22;259;53.304;9.816;2022-11-20T17:44:45;18.10;57.50
546;DHT22;259;53.304;9.816;2022-11-20T17:47:11;18.10;57.60
546;DHT22;259;53.304;9.816;2022-11-20T17:49:37;18.00;57.70
546;DHT22;259;53.304;9.816;2022-11-20T17:52:03;17.90;57.70
546;DHT22;259;53.304;9.816;2022-11-20T17:54:29;17.90;57.70
546;DHT22;259;53.304;9.816;2022-11-20T17:56:54;17.80;57.80
546;DHT22;259;53.304;9.816;2022-11-20T17:59:39;17.80;57.90
546;DHT22;259;53.304;9.816;2022-11-20T18:02:04;17.70;57.90
546;DHT22;259;53.304;9.816;2022-11-20T18:04:30;17.70;58.00
546;DHT22;259;53.304;9.816;2022-11-20T18:06:56;17.60;58.10
546;DHT22;259;53.304;9.816;2022-11-20T18:09:21;17.50;58.10
546;DHT22;259;53.304;9.816;2022-11-20T18:11:47;17.50;58.20
546;DHT22;259;53.304;9.816;2022-11-20T18:14:16;17.50;58.30
546;DHT22;259;53.304;9.816;2022-11-20T18:17:02;17.40;58.30
546;DHT22;259;53.304;9.816;2022-11-20T18:19:34;17.30;58.40
546;DHT22;259;53.304;9.816;2022-11-20T18:22:01;17.30;58.40
546;DHT22;259;53.304;9.816;2022-11-20T18:24:28;17.20;58.50
546;DHT22;259;53.304;9.816;2022-11-20T18:26:54;17.20;58.40
546;DHT22;259;53.304;9.816;2022-11-20T18:29:20;17.20;58.60